Time;durP1;ratioP1;P1;durP2;ratioP2;P2;SDS_P1;SDS_P2;PMS_P1;PMS_P2;Temp;Humidity;BMP_temperature;BMP_pressure;BME280_temperature;BME280_humidity;BME280_pressure;Samples;Min_cycle;Max_cycle;Signal;HPM_P1;HPM_P2
2022/02/03 00:01:49;;;;;;;;;;;;;;;6.73;100.00;101724.91;2569345;30;137170;-40
2022/02/03 00:04:18;;;;;;;;;;;;;;;6.79;100.00;101731.53;2568939;30;137332;-41
2022/02/03 00:06:54;;;;;;;;;;;;;;;6.74;100.00;101730.19;2568634;30;137265;-41
2022/02/03 00:28:04;;;;;;;;;;;;;;;6.83;100.00;101714.78;2568729;30;137629;-40
2022/02/03 00:30:57;;;;;;;;;;;;;;;6.90;100.00;101720.41;2568330;30;138590;-40
2022/02/03 00:50:08;;;;;;;;;;;;;;;6.97;100.00;101699.72;2568560;30;138092;-40
2022/02/03 00:52:37;;;;;;;;;;;;;;;6.98;100.00;101698.69;2567487;30;139223;-40
2022/02/03 00:55:06;;;;;;;;;;;;;;;7.00;100.00;101699.38;2568463;30;136686;-40
2022/02/03 00:57:40;;;;;;;;;;;;;;;6.99;100.00;101700.41;2566776;30;139125;-40
2022/02/03 01:00:09;;;;;;;;;;;;;;;7.00;100.00;101687.66;2566909;30;137464;-40
2022/02/03 01:02:50;;;;;;;;;;;;;;;6.99;100.00;101692.25;2568834;30;138454;-40
2022/02/03 01:05:19;;;;;;;;;;;;;;;7.00;100.00;101693.09;2566834;30;137245;-40
2022/02/03 01:07:49;;;;;;;;;;;;;;;7.00;100.00;101693.94;2568223;30;138179;-40
2022/02/03 01:10:29;;;;;;;;;;;;;;;6.97;100.00;101694.28;2566848;30;138026;-40
2022/02/03 01:34:37;;;;;;;;;;;;;;;6.89;100.00;101669.84;2567678;30;138521;-36
2022/02/03 01:37:16;;;;;;;;;;;;;;;6.84;100.00;101672.22;2568268;30;136840;-36
2022/02/03 01:45:47;;;;;;;;;;;;;;;6.96;100.00;101673.59;2569077;30;138263;-36
2022/02/03 01:53:49;;;;;;;;;;;;;;;7.00;100.00;101668.66;2566918;30;137329;-36
2022/02/03 01:56:22;;;;;;;;;;;;;;;7.01;100.00;101667.66;2565789;30;138627;-36
2022/02/03 01:59:01;;;;;;;;;;;;;;;7.04;100.00;101668.19;2568779;30;136823;-38
2022/02/03 02:01:31;;;;;;;;;;;;;;;7.10;100.00;101665.81;2568379;30;138294;-38
2022/02/03 02:04:01;;;;;;;;;;;;;;;7.05;100.00;101658.19;2568096;30;137146;-38
2022/02/03 02:06:38;;;;;;;;;;;;;;;7.05;100.00;101653.59;2568160;30;138183;-38
2022/02/03 02:09:26;;;;;;;;;;;;;;;7.09;100.00;101650.53;2569156;30;137359;-38
2022/02/03 02:12:18;;;;;;;;;;;;;;;7.04;100.00;101649.19;2568097;30;138992;-38
2022/02/03 02:42:51;;;;;;;;;;;;;;;7.16;100.00;101617.13;2570890;30;137136;-38
2022/02/03 02:45:23;;;;;;;;;;;;;;;7.18;100.00;101614.25;2567773;30;138975;-38
2022/02/03 02:48:10;;;;;;;;;;;;;;;7.19;100.00;101618.66;2568922;30;137324;-38
2022/02/03 02:50:52;;;;;;;;;;;;;;;7.19;100.00;101621.38;2568387;30;138289;-38
2022/02/03 02:56:33;;;;;;;;;;;;;;;7.17;100.00;101616.09;2567148;30;136962;-38
2022/02/03 03:35:06;;;;;;;;;;;;;;;7.20;100.00;101591.34;2568710;30;138197;-38
2022/02/03 03:37:44;;;;;;;;;;;;;;;7.20;100.00;101585.06;2569332;30;137401;-38
2022/02/03 03:40:13;;;;;;;;;;;;;;;7.14;100.00;101591.16;2568141;30;138413;-38
2022/02/03 03:42:45;;;;;;;;;;;;;;;7.13;100.00;101589.47;2568969;30;136816;-38
2022/02/03 03:45:13;;;;;;;;;;;;;;;7.11;100.00;101576.09;2568254;30;138387;-38
2022/02/03 03:47:46;;;;;;;;;;;;;;;7.05;100.00;101572.19;2565919;30;137775;-38
2022/02/03 03:50:16;;;;;;;;;;;;;;;7.05;100.00;101565.94;2566199;30;139075;-38
2022/02/03 03:52:50;;;;;;;;;;;;;;;7.07;100.00;101560.31;2568945;30;137201;-38
2022/02/03 03:58:35;;;;;;;;;;;;;;;7.03;100.00;101557.94;2569623;30;136899;-38
2022/02/03 04:41:15;;;;;;;;;;;;;;;6.79;100.00;101511.84;2568214;30;136790;-38
2022/02/03 04:44:08;;;;;;;;;;;;;;;6.80;100.00;101513.53;2567100;30;137282;-38
2022/02/03 05:01:15;;;;;;;;;;;;;;;6.86;100.00;101510.13;2567076;30;137278;-38
2022/02/03 05:04:25;;;;;;;;;;;;;;;6.80;100.00;101508.97;2569388;30;137799;-38
2022/02/03 05:10:04;;;;;;;;;;;;;;;6.81;100.00;101501.66;2565486;30;138632;-38
2022/02/03 05:12:49;;;;;;;;;;;;;;;6.80;100.00;101492.69;2566053;30;138025;-38
2022/02/03 05:18:43;;;;;;;;;;;;;;;6.74;100.00;101496.06;2565727;30;137648;-38
2022/02/03 05:43:58;;;;;;;;;;;;;;;6.68;100.00;101480.50;2568134;30;138327;-38
2022/02/03 06:08:53;;;;;;;;;;;;;;;6.53;100.00;101459.50;2568221;30;137031;-35
2022/02/03 06:27:47;;;;;;;;;;;;;;;6.41;100.00;101448.16;2565792;30;138559;-38
2022/02/03 06:30:19;;;;;;;;;;;;;;;6.41;100.00;101450.00;2567935;30;137005;-38
2022/02/03 06:32:47;;;;;;;;;;;;;;;6.42;100.00;101438.16;2566160;30;137152;-36
2022/02/03 06:35:17;;;;;;;;;;;;;;;6.40;100.00;101442.88;2566611;30;137373;-36
2022/02/03 06:37:47;;;;;;;;;;;;;;;6.39;100.00;101433.94;2568041;30;137722;-36
2022/02/03 06:40:16;;;;;;;;;;;;;;;6.36;100.00;101426.09;2567166;30;136752;-36
2022/02/03 06:42:45;;;;;;;;;;;;;;;6.33;100.00;101429.16;2567110;30;138308;-36
2022/02/03 06:45:23;;;;;;;;;;;;;;;6.32;100.00;101420.19;2567648;30;137083;-36
2022/02/03 06:50:24;;;;;;;;;;;;;;;6.33;100.00;101432.72;2568080;30;137192;-36
2022/02/03 06:53:06;;;;;;;;;;;;;;;6.30;100.00;101437.63;2568216;30;137271;-36
2022/02/03 07:01:00;;;;;;;;;;;;;;;6.25;100.00;101423.75;2569474;30;137152;-36
2022/02/03 07:03:31;;;;;;;;;;;;;;;6.24;100.00;101427.47;2569965;30;137413;-36
2022/02/03 07:05:59;;;;;;;;;;;;;;;6.22;100.00;101421.38;2569063;30;137206;-36
2022/02/03 07:08:29;;;;;;;;;;;;;;;6.23;100.00;101414.94;2569056;30;138710;-36
2022/02/03 07:10:57;;;;;;;;;;;;;;;6.18;100.00;101412.72;2568719;30;138172;-36
2022/02/03 07:13:26;;;;;;;;;;;;;;;6.19;100.00;101409.00;2568775;30;137363;-36
2022/02/03 07:15:54;;;;;;;;;;;;;;;6.14;100.00;101412.25;2569905;30;138081;-36
2022/02/03 07:18:22;;;;;;;;;;;;;;;6.13;100.00;101413.25;2565867;30;137841;-36
2022/02/03 07:20:50;;;;;;;;;;;;;;;6.15;100.00;101415.78;2568874;30;136737;-36
2022/02/03 07:23:18;;;;;;;;;;;;;;;6.19;100.00;101404.44;2568388;30;137259;-36
2022/02/03 07:25:46;;;;;;;;;;;;;;;6.18;100.00;101401.88;2569232;30;137934;-36
2022/02/03 07:28:14;;;;;;;;;;;;;;;6.19;100.00;101390.91;2568605;30;142976;-40
2022/02/03 07:30:41;;;;;;;;;;;;;;;6.21;100.00;101384.47;2570181;30;137188;-40
2022/02/03 07:33:10;;;;;;;;;;;;;;;6.20;100.00;101389.03;2568564;30;138170;-40
2022/02/03 07:35:38;;;;;;;;;;;;;;;6.17;100.00;101381.22;2567032;30;137042;-40
2022/02/03 07:38:08;;;;;;;;;;;;;;;6.18;100.00;101375.66;2566353;30;139028;-40
2022/02/03 07:40:35;;;;;;;;;;;;;;;6.17;100.00;101375.81;2568439;30;137190;-40
2022/02/03 07:43:07;;;;;;;;;;;;;;;6.19;100.00;101371.94;2568371;30;137479;-40
2022/02/03 07:45:35;;;;;;;;;;;;;;;6.18;100.00;101375.66;2567932;30;137339;-40
2022/02/03 07:48:03;;;;;;;;;;;;;;;6.22;100.00;101391.56;2569053;30;138179;-40
2022/02/03 07:50:31;;;;;;;;;;;;;;;6.25;100.00;101388.53;2569583;30;137945;-40
2022/02/03 07:52:59;;;;;;;;;;;;;;;6.24;100.00;101387.69;2567920;30;137419;-40
2022/02/03 07:55:27;;;;;;;;;;;;;;;6.28;100.00;101385.47;2567864;30;136957;-40
2022/02/03 07:57:55;;;;;;;;;;;;;;;6.28;100.00;101388.19;2568192;30;138014;-40
2022/02/03 08:00:23;;;;;;;;;;;;;;;6.29;100.00;101401.56;2568127;30;137786;-40
2022/02/03 08:03:12;;;;;;;;;;;;;;;6.30;100.00;101397.84;2569153;30;137086;-40
2022/02/03 08:05:42;;;;;;;;;;;;;;;6.32;100.00;101393.09;2568977;30;138049;-40
2022/02/03 08:08:18;;;;;;;;;;;;;;;6.35;100.00;101378.34;2568653;30;138386;-40
2022/02/03 08:10:52;;;;;;;;;;;;;;;6.32;100.00;101365.13;2567725;30;137417;-40
2022/02/03 08:13:33;;;;;;;;;;;;;;;6.30;100.00;101349.06;2568507;30;138246;-40
2022/02/03 08:16:52;;;;;;;;;;;;;;;6.30;100.00;101337.34;2568964;30;137351;-40
2022/02/03 08:18:56;;;;;;;;;;;;;;;6.29;100.00;101338.38;2566834;30;138798;-40
2022/02/03 08:21:24;;;;;;;;;;;;;;;6.23;100.00;101331.78;2567761;30;139177;-40
2022/02/03 08:31:26;;;;;;;;;;;;;;;6.33;100.00;101308.06;2567779;30;137016;-40
2022/02/03 08:33:55;;;;;;;;;;;;;;;6.36;100.00;101308.72;2569000;30;139447;-40
2022/02/03 08:36:25;;;;;;;;;;;;;;;6.39;100.00;101320.09;2567643;30;137287;-40
2022/02/03 08:38:56;;;;;;;;;;;;;;;6.44;100.00;101314.97;2569279;30;137089;-40
2022/02/03 08:41:25;;;;;;;;;;;;;;;6.43;100.00;101310.59;2568209;30;137344;-40
2022/02/03 08:43:53;;;;;;;;;;;;;;;6.43;100.00;101321.44;2567501;30;137453;-40
2022/02/03 08:46:25;;;;;;;;;;;;;;;6.44;100.00;101324.97;2568992;30;136938;-40
2022/02/03 08:48:53;;;;;;;;;;;;;;;6.40;100.00;101324.50;2570312;30;137083;-40
2022/02/03 08:51:21;;;;;;;;;;;;;;;6.42;100.00;101321.59;2568905;30;137063;-40
2022/02/03 08:53:55;;;;;;;;;;;;;;;6.44;100.00;101320.41;2568841;30;137470;-40
2022/02/03 09:40:23;;;;;;;;;;;;;;;6.53;100.00;101310.41;2565477;30;137325;-40
2022/02/03 09:56:52;;;;;;;;;;;;;;;6.60;100.00;101291.53;2567871;30;137925;-40
2022/02/03 09:59:22;;;;;;;;;;;;;;;6.60;100.00;101286.13;2566054;30;138315;-40
2022/02/03 10:02:06;;;;;;;;;;;;;;;6.66;100.00;101280.03;2567635;30;137056;-40
2022/02/03 10:07:18;;;;;;;;;;;;;;;6.67;100.00;101265.44;2567482;30;137391;-40
2022/02/03 10:09:47;;;;;;;;;;;;;;;6.60;100.00;101275.28;2565953;30;138427;-40
2022/02/03 10:12:15;;;;;;;;;;;;;;;6.66;100.00;101277.31;2568587;30;137160;-40
2022/02/03 10:14:46;;;;;;;;;;;;;;;6.66;100.00;101279.16;2568142;30;138160;-40
2022/02/03 10:17:16;;;;;;;;;;;;;;;6.60;100.00;101269.84;2567021;30;136771;-40
2022/02/03 10:19:58;;;;;;;;;;;;;;;6.65;100.00;101269.34;2567943;30;138229;-40
2022/02/03 10:22:27;;;;;;;;;;;;;;;6.57;100.00;101272.91;2568196;30;138715;-40
2022/02/03 10:25:03;;;;;;;;;;;;;;;6.53;100.00;101258.03;2569018;30;138520;-40
2022/02/03 10:27:37;;;;;;;;;;;;;;;6.54;100.00;101268.72;2566685;30;137602;-40
2022/02/03 10:30:08;;;;;;;;;;;;;;;6.52;100.00;101268.03;2568791;30;139020;-40
2022/02/03 10:32:40;;;;;;;;;;;;;;;6.53;100.00;101274.28;2568326;30;138151;-40
2022/02/03 10:35:20;;;;;;;;;;;;;;;6.53;100.00;101282.41;2568187;30;138969;-40
2022/02/03 10:38:06;;;;;;;;;;;;;;;6.51;100.00;101281.75;2568784;30;137088;-40
2022/02/03 10:40:57;;;;;;;;;;;;;;;6.54;100.00;101286.81;2567483;30;138686;-40
2022/02/03 10:43:54;;;;;;;;;;;;;;;6.57;100.00;101287.34;2568486;30;137168;-40
2022/02/03 10:49:50;;;;;;;;;;;;;;;6.61;100.00;101280.53;2567835;30;136698;-40
2022/02/03 10:52:59;;;;;;;;;;;;;;;6.57;100.00;101268.34;2566482;30;137467;-40
2022/02/03 11:04:02;;;;;;;;;;;;;;;6.51;100.00;101250.09;2568991;30;137477;-40
2022/02/03 11:11:11;;;;;;;;;;;;;;;6.53;100.00;101237.19;2569329;30;137085;-40
2022/02/03 11:13:39;;;;;;;;;;;;;;;6.56;100.00;101241.41;2567779;30;138404;-40
2022/02/03 11:16:09;;;;;;;;;;;;;;;6.57;100.00;101233.09;2567209;30;138024;-40
2022/02/03 11:18:39;;;;;;;;;;;;;;;6.56;100.00;101241.41;2568456;30;137460;-40
2022/02/03 11:21:07;;;;;;;;;;;;;;;6.60;100.00;101235.47;2568634;30;137050;-40
2022/02/03 11:23:43;;;;;;;;;;;;;;;6.58;100.00;101214.97;2568922;30;137529;-40
2022/02/03 11:26:26;;;;;;;;;;;;;;;6.62;100.00;101214.44;2568577;30;137619;-40
2022/02/03 11:31:54;;;;;;;;;;;;;;;6.64;100.00;101206.13;2567351;30;137301;-40
2022/02/03 12:10:42;;;;;;;;;;;;;;;6.48;99.96;101197.06;2568334;30;137951;-40
2022/02/03 12:21:34;;;;;;;;;;;;;;;6.44;100.00;101181.31;2568648;30;137204;-40
2022/02/03 12:24:16;;;;;;;;;;;;;;;6.37;100.00;101178.47;2568288;30;138410;-40
2022/02/03 12:26:57;;;;;;;;;;;;;;;6.34;100.00;101162.53;2567329;30;137355;-41
2022/02/03 12:29:34;;;;;;;;;;;;;;;6.37;100.00;101156.78;2568574;30;138157;-40
2022/02/03 12:38:20;;;;;;;;;;;;;;;6.50;100.00;101161.66;2566206;30;137842;-40
2022/02/03 12:40:55;;;;;;;;;;;;;;;6.49;100.00;101149.09;2567668;30;138630;-40
2022/02/03 12:43:32;;;;;;;;;;;;;;;6.47;100.00;101135.72;2568509;30;136909;-40
2022/02/03 12:46:02;;;;;;;;;;;;;;;6.44;99.01;101124.38;2568356;30;137384;-40
2022/02/03 12:48:31;;;;;;;;;;;;;;;6.41;100.00;101103.91;2568636;30;137086;-40
2022/02/03 12:50:59;;;;;;;;;;;;;;;6.43;100.00;101112.72;2569916;30;138265;-40
2022/02/03 12:53:31;;;;;;;;;;;;;;;6.41;99.78;101103.06;2568306;30;137100;-40
2022/02/03 12:56:02;;;;;;;;;;;;;;;6.38;100.00;101100.72;2568512;30;139582;-40
2022/02/03 12:58:36;;;;;;;;;;;;;;;6.38;100.00;101112.41;2568942;30;136983;-40
2022/02/03 13:01:30;;;;;;;;;;;;;;;6.39;99.23;101100.53;2567856;30;138322;-40
2022/02/03 13:03:55;;;;;;;;;;;;;;;6.41;99.32;101106.63;2566921;30;136779;-40
2022/02/03 13:06:26;;;;;;;;;;;;;;;6.42;99.36;101105.59;2569820;30;138245;-40
2022/02/03 13:08:54;;;;;;;;;;;;;;;6.43;100.00;101107.28;2568519;30;137947;-40
2022/02/03 13:14:09;;;;;;;;;;;;;;;6.47;100.00;101102.34;2569116;30;137198;-40
2022/02/03 13:16:37;;;;;;;;;;;;;;;6.44;100.00;101094.56;2567600;30;138306;-40
2022/02/03 13:24:41;;;;;;;;;;;;;;;6.40;99.01;101087.81;2568777;30;137040;-40
2022/02/03 13:29:15;;;;;;;;;;;;;;;6.40;100.00;101085.13;2567780;30;137200;-38
2022/02/03 13:34:29;;;;;;;;;;;;;;;6.39;100.00;101092.41;2569926;30;137692;-40
2022/02/03 13:37:15;;;;;;;;;;;;;;;6.33;100.00;101091.25;2570498;30;137006;-41
2022/02/03 13:39:47;;;;;;;;;;;;;;;6.33;100.00;101090.41;2567650;30;137830;-40
2022/02/03 13:42:16;;;;;;;;;;;;;;;6.30;100.00;101094.31;2570767;30;137382;-40
2022/02/03 13:44:44;;;;;;;;;;;;;;;6.27;100.00;101096.53;2568631;30;138007;-41
2022/02/03 13:47:25;;;;;;;;;;;;;;;6.25;100.00;101093.16;2568940;30;137090;-40
2022/02/03 13:50:05;;;;;;;;;;;;;;;6.23;100.00;101085.19;2571059;30;138327;-40
2022/02/03 13:52:48;;;;;;;;;;;;;;;6.23;100.00;101079.78;2567973;30;136933;-40
2022/02/03 14:18:31;;;;;;;;;;;;;;;6.12;100.00;101062.06;2571669;30;138257;-40
2022/02/03 14:29:06;;;;;;;;;;;;;;;6.42;100.00;101055.97;2569763;30;138956;-40
2022/02/03 14:31:34;;;;;;;;;;;;;;;6.52;100.00;101044.88;2570138;30;137060;-40
2022/02/03 14:34:07;;;;;;;;;;;;;;;6.58;100.00;101038.75;2570338;30;138255;-40
2022/02/03 14:36:35;;;;;;;;;;;;;;;6.66;100.00;101041.41;2569662;30;138117;-40
2022/02/03 14:39:17;;;;;;;;;;;;;;;6.70;100.00;101041.88;2570188;30;139267;-40
2022/02/03 14:41:47;;;;;;;;;;;;;;;6.69;99.33;101029.34;2570432;30;137223;-41
2022/02/03 14:44:17;;;;;;;;;;;;;;;6.62;98.72;101026.50;2567106;30;137708;-41
2022/02/03 14:46:46;;;;;;;;;;;;;;;6.58;99.65;101011.63;2571683;30;136854;-40
2022/02/03 14:49:13;;;;;;;;;;;;;;;6.57;99.92;101010.78;2570052;30;138505;-40
2022/02/03 14:51:54;;;;;;;;;;;;;;;6.55;100.00;101009.28;2570373;30;137250;-41
2022/02/03 14:59:40;;;;;;;;;;;;;;;6.53;100.00;101014.03;2571450;30;136688;-41
2022/02/03 15:02:08;;;;;;;;;;;;;;;6.49;100.00;101000.00;2568080;30;137789;-40
2022/02/03 15:04:39;;;;;;;;;;;;;;;6.43;100.00;101004.28;2569051;30;137340;-41
2022/02/03 15:07:09;;;;;;;;;;;;;;;6.42;99.68;101002.63;2571509;30;137153;-40
2022/02/03 15:12:24;;;;;;;;;;;;;;;6.48;99.13;101006.44;2569763;30;137032;-40
2022/02/03 15:14:56;;;;;;;;;;;;;;;6.45;99.73;101002.25;2571792;30;136629;-41
2022/02/03 15:17:25;;;;;;;;;;;;;;;6.42;99.37;101001.75;2569879;30;137033;-40
2022/02/03 15:19:52;;;;;;;;;;;;;;;6.36;99.29;101008.72;2569930;30;137702;-41
2022/02/03 15:22:20;;;;;;;;;;;;;;;6.35;99.55;101003.50;2567948;30;137248;-40
2022/02/03 15:24:48;;;;;;;;;;;;;;;6.34;99.90;100999.94;2569147;30;138457;-40
2022/02/03 15:27:16;;;;;;;;;;;;;;;6.31;100.00;101001.16;2570136;30;137056;-40
2022/02/03 15:29:46;;;;;;;;;;;;;;;6.34;100.00;101002.66;2569372;30;138271;-41
2022/02/03 15:32:14;;;;;;;;;;;;;;;6.33;100.00;100987.41;2569820;30;137221;-40
2022/02/03 15:34:42;;;;;;;;;;;;;;;6.32;99.82;100985.72;2569586;30;137490;-41
2022/02/03 15:37:15;;;;;;;;;;;;;;;6.29;100.00;100986.09;2570332;30;137894;-40
2022/02/03 15:39:49;;;;;;;;;;;;;;;6.30;100.00;100977.78;2570218;30;138263;-39
2022/02/03 15:42:21;;;;;;;;;;;;;;;6.29;99.86;100976.13;2571311;30;136995;-41
2022/02/03 15:44:52;;;;;;;;;;;;;;;6.33;99.23;100971.16;2569945;30;139133;-41
2022/02/03 15:47:33;;;;;;;;;;;;;;;6.27;100.00;100971.88;2569203;30;138138;-41
2022/02/03 16:03:50;;;;;;;;;;;;;;;6.22;100.00;100963.47;2571152;30;136931;-40
2022/02/03 16:17:23;;;;;;;;;;;;;;;6.07;100.00;100956.09;2567820;30;138455;-40
2022/02/03 16:25:00;;;;;;;;;;;;;;;6.03;100.00;100960.19;2567915;30;137516;-40
2022/02/03 16:54:46;;;;;;;;;;;;;;;5.94;100.00;100955.81;2568968;30;138976;-40
2022/02/03 16:57:18;;;;;;;;;;;;;;;5.90;100.00;100958.91;2570943;30;137082;-40
2022/02/03 17:00:00;;;;;;;;;;;;;;;5.88;100.00;100954.66;2568251;30;139000;-39
2022/02/03 17:02:51;;;;;;;;;;;;;;;5.84;100.00;100961.47;2571118;30;137902;-40
2022/02/03 17:05:19;;;;;;;;;;;;;;;5.83;100.00;100959.78;2570931;30;138224;-40
2022/02/03 17:07:47;;;;;;;;;;;;;;;5.80;100.00;100974.50;2570804;30;137071;-40
2022/02/03 17:10:14;;;;;;;;;;;;;;;5.81;100.00;100973.47;2568769;30;138459;-40
2022/02/03 17:12:42;;;;;;;;;;;;;;;5.74;100.00;100964.38;2568308;30;137136;-41
2022/02/03 17:15:10;;;;;;;;;;;;;;;5.77;100.00;100969.44;2570881;30;137953;-40
2022/02/03 17:17:38;;;;;;;;;;;;;;;5.75;100.00;100968.78;2570738;30;136949;-41
2022/02/03 17:20:06;;;;;;;;;;;;;;;5.72;100.00;100964.59;2569493;30;137597;-40
2022/02/03 17:22:40;;;;;;;;;;;;;;;5.74;100.00;100961.69;2568597;30;138220;-41
2022/02/03 17:25:14;;;;;;;;;;;;;;;5.74;100.00;100959.81;2567738;30;137167;-40
2022/02/03 17:27:53;;;;;;;;;;;;;;;5.72;100.00;100963.72;2571084;30;137246;-40
2022/02/03 18:32:53;;;;;;;;;;;;;;;5.58;100.00;100963.47;2569549;30;137014;-40
2022/02/03 18:45:53;;;;;;;;;;;;;;;5.60;100.00;100961.41;2571697;30;136746;-40
2022/02/03 18:49:50;;;;;;;;;;;;;;;5.56;100.00;100968.19;2568709;30;137911;-40
2022/02/03 18:57:01;;;;;;;;;;;;;;;5.54;100.00;100969.38;2569532;30;138415;-40
2022/02/03 19:22:02;;;;;;;;;;;;;;;5.45;100.00;100946.94;2567713;30;137312;-41
2022/02/03 20:07:25;;;;;;;;;;;;;;;5.22;100.00;100944.97;2567316;30;139431;-40
2022/02/03 20:10:18;;;;;;;;;;;;;;;5.20;100.00;100952.44;2567766;30;137364;-40
2022/02/03 20:12:46;;;;;;;;;;;;;;;5.20;100.00;100960.53;2569117;30;137565;-40
2022/02/03 20:15:17;;;;;;;;;;;;;;;5.22;100.00;100953.09;2567803;30;137015;-40
2022/02/03 20:17:45;;;;;;;;;;;;;;;5.25;100.00;100944.63;2569134;30;137500;-40
2022/02/03 20:20:13;;;;;;;;;;;;;;;5.23;100.00;100943.97;2569496;30;137118;-40
2022/02/03 20:22:41;;;;;;;;;;;;;;;5.23;100.00;100949.38;2567502;30;138403;-40
2022/02/03 20:25:13;;;;;;;;;;;;;;;5.24;100.00;100945.66;2567072;30;137885;-40
2022/02/03 20:27:41;;;;;;;;;;;;;;;5.26;100.00;100949.00;2568138;30;137312;-40
2022/02/03 20:30:09;;;;;;;;;;;;;;;5.25;100.00;100950.03;2569416;30;137244;-40
2022/02/03 20:32:37;;;;;;;;;;;;;;;5.21;100.00;100950.56;2568003;30;139234;-40
2022/02/03 20:35:06;;;;;;;;;;;;;;;5.20;100.00;100949.72;2567438;30;137464;-40
2022/02/03 20:37:35;;;;;;;;;;;;;;;5.22;100.00;100958.50;2568642;30;137369;-40
2022/02/03 20:40:03;;;;;;;;;;;;;;;5.18;100.00;100960.72;2568799;30;137050;-40
2022/02/03 20:42:31;;;;;;;;;;;;;;;5.17;100.00;100953.63;2566886;30;138182;-40
2022/02/03 20:44:59;;;;;;;;;;;;;;;5.16;100.00;100949.22;2568445;30;138023;-40
2022/02/03 20:47:28;;;;;;;;;;;;;;;5.15;100.00;100946.69;2565582;30;138726;-40
2022/02/03 20:49:57;;;;;;;;;;;;;;;5.15;100.00;100947.53;2567617;30;136895;-40
2022/02/03 20:52:25;;;;;;;;;;;;;;;5.16;100.00;100949.22;2568516;30;138323;-40
2022/02/03 20:54:53;;;;;;;;;;;;;;;5.14;100.00;100950.41;2566625;30;136761;-40
2022/02/03 20:57:21;;;;;;;;;;;;;;;5.15;100.00;100946.69;2567541;30;137455;-40
2022/02/03 20:59:55;;;;;;;;;;;;;;;5.10;100.00;100944.50;2569578;30;137273;-40
2022/02/03 21:02:49;;;;;;;;;;;;;;;5.12;100.00;100947.06;2567729;30;138473;-40
2022/02/03 21:05:16;;;;;;;;;;;;;;;5.11;100.00;100939.97;2567881;30;137201;-40
2022/02/03 21:07:45;;;;;;;;;;;;;;;5.08;100.00;100940.31;2566675;30;138832;-40
2022/02/03 21:10:16;;;;;;;;;;;;;;;5.11;100.00;100934.53;2567926;30;137907;-40
2022/02/03 21:12:45;;;;;;;;;;;;;;;5.12;100.00;100931.66;2567796;30;139296;-41
2022/02/03 21:15:19;;;;;;;;;;;;;;;5.15;100.00;100928.59;2569056;30;137011;-40
2022/02/03 21:17:47;;;;;;;;;;;;;;;5.11;100.00;100927.25;2569381;30;138463;-40
2022/02/03 21:20:17;;;;;;;;;;;;;;;5.12;100.00;100934.34;2568614;30;137058;-40
2022/02/03 21:22:46;;;;;;;;;;;;;;;5.12;100.00;100933.53;2568337;30;138577;-40
2022/02/03 21:25:22;;;;;;;;;;;;;;;5.14;100.00;100934.19;2568568;30;136872;-40
2022/02/03 21:27:53;;;;;;;;;;;;;;;5.11;100.00;100935.38;2568303;30;139114;-40
2022/02/03 21:30:21;;;;;;;;;;;;;;;5.13;100.00;100933.34;2565305;30;137366;-40
2022/02/03 21:32:50;;;;;;;;;;;;;;;5.09;100.00;100934.69;2568517;30;138550;-40
2022/02/03 21:35:20;;;;;;;;;;;;;;;5.10;100.00;100939.09;2569636;30;136656;-40
2022/02/03 21:37:49;;;;;;;;;;;;;;;5.09;100.00;100931.16;2568128;30;137137;-41
2022/02/03 21:40:19;;;;;;;;;;;;;;;5.07;100.00;100933.22;2567459;30;137164;-40
2022/02/03 21:42:49;;;;;;;;;;;;;;;5.05;100.00;100930.66;2568274;30;137739;-40
2022/02/03 21:45:18;;;;;;;;;;;;;;;5.11;100.00;100927.25;2567206;30;137840;-40
2022/02/03 21:47:46;;;;;;;;;;;;;;;5.14;100.00;100939.59;2567161;30;138443;-40
2022/02/03 21:50:14;;;;;;;;;;;;;;;5.14;100.00;100932.31;2568361;30;137095;-40
2022/02/03 21:52:49;;;;;;;;;;;;;;;5.11;100.00;100929.97;2568705;30;138303;-40
2022/02/03 21:55:17;;;;;;;;;;;;;;;5.12;100.00;100933.53;2566510;30;137292;-40
2022/02/03 21:57:49;;;;;;;;;;;;;;;5.06;100.00;100931.53;2569261;30;138951;-40
2022/02/03 22:00:17;;;;;;;;;;;;;;;5.07;100.00;100923.22;2568446;30;137214;-40
2022/02/03 22:02:45;;;;;;;;;;;;;;;5.10;100.00;100927.44;2566690;30;139143;-40
2022/02/03 22:05:14;;;;;;;;;;;;;;;5.10;100.00;100922.03;2565825;30;137002;-40
2022/02/03 22:07:43;;;;;;;;;;;;;;;5.16;100.00;100915.94;2568241;30;138922;-40
2022/02/03 22:10:13;;;;;;;;;;;;;;;5.17;100.00;100928.44;2568384;30;137903;-40
2022/02/03 22:12:40;;;;;;;;;;;;;;;5.14;100.00;100926.09;2568380;30;138337;-40
2022/02/03 22:15:09;;;;;;;;;;;;;;;5.11;100.00;100927.25;2567921;30;137294;-40
2022/02/03 22:17:37;;;;;;;;;;;;;;;5.12;100.00;100928.13;2567873;30;137125;-41
2022/02/03 22:20:14;;;;;;;;;;;;;;;5.14;100.00;100920.66;2568339;30;137016;-40
2022/02/03 22:39:03;;;;;;;;;;;;;;;5.20;100.00;100922.66;2569169;30;138327;-41
2022/02/03 22:44:24;;;;;;;;;;;;;;;5.21;100.00;100927.06;2569303;30;137149;-41
2022/02/03 22:49:20;;;;;;;;;;;;;;;5.15;100.00;100920.47;2568661;30;137105;-40
2022/02/03 22:51:48;;;;;;;;;;;;;;;5.14;100.00;100918.78;2568254;30;136764;-40
2022/02/03 22:54:18;;;;;;;;;;;;;;;5.15;100.00;100919.66;2567989;30;137485;-40
2022/02/03 22:56:45;;;;;;;;;;;;;;;5.16;100.00;100915.94;2569768;30;136998;-41
2022/02/03 23:01:56;;;;;;;;;;;;;;;5.19;100.00;100920.97;2567356;30;137197;-40
2022/02/03 23:04:24;;;;;;;;;;;;;;;5.19;100.00;100918.28;2568568;30;137681;-40
2022/02/03 23:06:56;;;;;;;;;;;;;;;5.19;100.00;100920.97;2568603;30;137865;-40
2022/02/03 23:09:51;;;;;;;;;;;;;;;5.14;100.00;100909.84;2570319;30;139069;-41
2022/02/03 23:15:25;;;;;;;;;;;;;;;5.14;100.00;100916.09;2569328;30;138386;-40
2022/02/03 23:17:47;;;;;;;;;;;;;;;5.20;100.00;100911.84;2568582;30;138046;-40
2022/02/03 23:20:22;;;;;;;;;;;;;;;5.20;100.00;100919.13;2568030;30;139465;-40
2022/02/03 23:22:51;;;;;;;;;;;;;;;5.25;100.00;100919.44;2569238;30;138073;-40
2022/02/03 23:25:20;;;;;;;;;;;;;;;5.27;100.00;100923.66;2567914;30;138155;-40
2022/02/03 23:30:36;;;;;;;;;;;;;;;5.20;100.00;100924.53;2569253;30;139311;-40
2022/02/03 23:33:04;;;;;;;;;;;;;;;5.20;100.00;100914.56;2568459;30;137373;-40
2022/02/03 23:35:33;;;;;;;;;;;;;;;5.17;100.00;100912.19;2569473;30;138580;-40
2022/02/03 23:40:58;;;;;;;;;;;;;;;5.15;100.00;100915.06;2567268;30;138823;-41
